Terminal Aerodrome Forecast
Issued by NWS Cleveland, OH

Home | Current Version | Previous Version | Text Only | Print | Product List | Glossary On
Versions: 1 2 3 4 5 6 7 8 9 10 11 12 13 14 15 16 17
530
FTUS41 KCLE 302337
TAFERI
TAF
KERI 302337Z 3100/3124 04007KT P6SM BKN150
     FM310600 13005KT P6SM SCT150
     FM311400 09005KT P6SM BKN015
     FM311600 04007KT P6SM BKN035
     FM311700 04007KT P6SM VCTS SCT035CB BKN050
     FM312100 36010KT P6SM BKN100=

USA.gov is the U.S. government's official web portal to all federal, state and local government web resources and services.